Time;durP1;ratioP1;P1;durP2;ratioP2;P2;SDS_P1;SDS_P2;PMS_P1;PMS_P2;Temp;Humidity;BMP_temperature;BMP_pressure;BME280_temperature;BME280_humidity;BME280_pressure;Samples;Min_cycle;Max_cycle;Signal;HPM_P1;HPM_P2
2024/04/15 00:01:57;;;;;;;3.92;3.40;;;15.30;68.60;;;;;;5401701;26;20007;-62
2024/04/15 00:04:23;;;;;;;3.15;2.85;;;15.30;68.60;;;;;;5407526;26;20361;-63
2024/04/15 00:06:48;;;;;;;3.10;2.83;;;15.20;68.60;;;;;;5400239;26;20006;-60
2024/04/15 00:09:14;;;;;;;3.83;3.03;;;15.20;68.80;;;;;;5402599;26;19992;-62
2024/04/15 00:11:39;;;;;;;3.95;3.45;;;15.10;68.80;;;;;;5406667;26;19995;-62
2024/04/15 00:14:05;;;;;;;4.63;3.45;;;15.10;68.90;;;;;;5401733;26;20007;-62
2024/04/15 00:16:30;;;;;;;5.90;3.25;;;15.00;69.20;;;;;;5394278;26;20000;-63
2024/04/15 00:18:56;;;;;;;3.35;3.00;;;15.00;69.20;;;;;;5403062;26;20007;-63
2024/04/15 00:21:21;;;;;;;3.60;3.30;;;15.00;69.00;;;;;;5404605;26;20039;-62
2024/04/15 00:23:47;;;;;;;4.20;2.75;;;14.90;68.90;;;;;;5400131;26;20311;-62
2024/04/15 00:26:13;;;;;;;3.38;2.80;;;14.90;69.00;;;;;;5389266;26;19996;-63
2024/04/15 00:28:38;;;;;;;4.75;2.80;;;14.80;69.00;;;;;;5372439;26;20050;-61
2024/04/15 00:31:04;;;;;;;3.90;2.88;;;14.80;69.00;;;;;;5384939;26;20344;-62
2024/04/15 00:33:29;;;;;;;3.28;2.97;;;14.70;69.30;;;;;;5356680;26;20012;-61
2024/04/15 00:35:55;;;;;;;3.40;2.88;;;14.70;69.50;;;;;;5371530;26;20003;-61
2024/04/15 00:38:20;;;;;;;4.70;2.92;;;14.60;69.70;;;;;;5394737;26;20000;-63
2024/04/15 00:40:47;;;;;;;3.60;2.90;;;14.60;69.70;;;;;;5397546;26;20460;-62
2024/04/15 00:43:12;;;;;;;3.72;2.80;;;14.60;69.70;;;;;;5391647;26;20673;-62
2024/04/15 00:45:38;;;;;;;3.78;3.15;;;14.50;69.30;;;;;;5395705;26;20003;-61
2024/04/15 00:48:06;;;;;;;3.20;2.90;;;14.50;69.70;;;;;;5401077;26;20070;-62
2024/04/15 00:50:35;;;;;;;3.05;2.75;;;14.50;69.90;;;;;;5405406;26;20347;-62
2024/04/15 00:53:03;;;;;;;4.78;2.92;;;14.40;70.00;;;;;;5401905;26;20018;-62
2024/04/15 00:55:29;;;;;;;4.20;3.10;;;14.40;70.00;;;;;;5406593;26;20004;-62
2024/04/15 00:57:55;;;;;;;3.38;3.08;;;14.50;70.10;;;;;;5402255;26;19996;-63
2024/04/15 01:00:21;;;;;;;3.30;3.00;;;14.50;70.20;;;;;;5392257;26;20004;-62
2024/04/15 01:02:48;;;;;;;3.60;2.58;;;14.40;69.90;;;;;;5363037;26;20019;-63
2024/04/15 01:05:13;;;;;;;3.53;3.05;;;14.40;69.70;;;;;;5366779;26;20007;-62
2024/04/15 01:07:39;;;;;;;3.22;2.97;;;14.40;69.90;;;;;;5404748;26;20000;-62
2024/04/15 01:10:06;;;;;;;3.25;2.92;;;14.50;70.20;;;;;;5407031;26;20447;-62
2024/04/15 01:12:32;;;;;;;2.78;2.58;;;14.50;70.30;;;;;;5404880;26;20003;-63
2024/04/15 01:14:58;;;;;;;3.13;2.83;;;14.50;70.00;;;;;;5417001;26;20006;-63
2024/04/15 01:17:24;;;;;;;3.92;3.00;;;14.50;70.00;;;;;;5411516;26;20518;-62
2024/04/15 01:19:49;;;;;;;3.78;2.92;;;14.50;70.20;;;;;;5403926;26;20215;-62
2024/04/15 01:22:20;;;;;;;2.80;2.60;;;14.50;70.20;;;;;;5398499;26;20008;-62
2024/04/15 01:24:48;;;;;;;4.55;3.20;;;14.50;70.40;;;;;;5405746;26;20476;-62
2024/04/15 01:27:14;;;;;;;3.75;2.88;;;14.50;70.20;;;;;;5411910;26;20273;-63
2024/04/15 01:29:39;;;;;;;4.20;3.05;;;14.60;70.20;;;;;;5415660;26;20002;-62
2024/04/15 01:32:05;;;;;;;3.15;2.85;;;14.60;70.50;;;;;;5411168;26;20000;-61
2024/04/15 01:34:31;;;;;;;5.70;2.90;;;14.60;70.80;;;;;;5399924;26;20017;-60
2024/04/15 01:36:57;;;;;;;2.95;2.58;;;14.60;71.30;;;;;;5406724;26;19992;-60
2024/04/15 01:39:22;;;;;;;5.90;2.80;;;14.60;71.40;;;;;;5406925;26;20437;-59
2024/04/15 01:41:48;;;;;;;2.88;2.60;;;14.50;72.60;;;;;;5389796;26;19996;-60
2024/04/15 01:44:14;;;;;;;5.03;2.88;;;14.60;72.10;;;;;;5399022;26;20022;-60
2024/04/15 01:46:39;;;;;;;5.35;2.70;;;14.60;72.60;;;;;;5402413;26;20335;-61
2024/04/15 01:49:05;;;;;;;4.72;2.97;;;14.70;73.10;;;;;;5407211;26;20039;-61
2024/04/15 01:51:30;;;;;;;5.05;3.05;;;14.80;73.40;;;;;;5402289;26;20328;-61
2024/04/15 01:53:56;;;;;;;3.65;2.95;;;14.70;73.70;;;;;;5401721;26;20019;-62
2024/04/15 01:56:22;;;;;;;3.38;2.40;;;14.70;73.50;;;;;;5405014;26;20003;-60
2024/04/15 01:58:47;;;;;;;3.70;2.38;;;14.80;73.30;;;;;;5401757;26;20000;-59
2024/04/15 02:01:13;;;;;;;3.58;2.65;;;14.80;72.70;;;;;;5402285;26;20396;-61
2024/04/15 02:03:40;;;;;;;3.78;2.72;;;14.80;72.90;;;;;;5409303;26;20007;-62
2024/04/15 02:06:06;;;;;;;2.80;2.60;;;14.80;73.00;;;;;;5407125;26;20007;-60
2024/04/15 02:08:32;;;;;;;2.67;2.28;;;14.80;72.60;;;;;;5411023;26;19992;-60
2024/04/15 02:10:57;;;;;;;3.30;2.28;;;14.90;72.40;;;;;;5412075;26;20785;-61
2024/04/15 02:13:23;;;;;;;2.80;2.35;;;14.90;72.30;;;;;;5410569;26;19992;-62
2024/04/15 02:15:48;;;;;;;2.35;2.15;;;14.90;72.00;;;;;;5396512;26;20014;-59
2024/04/15 02:18:14;;;;;;;2.90;2.50;;;14.90;71.80;;;;;;5405020;26;20013;-63
2024/04/15 02:20:40;;;;;;;3.17;2.20;;;15.00;71.70;;;;;;5397976;26;20002;-63
2024/04/15 02:23:06;;;;;;;3.00;2.70;;;15.10;71.60;;;;;;5393655;26;20019;-62
2024/04/15 02:25:32;;;;;;;2.80;2.35;;;15.10;71.60;;;;;;5403411;26;19992;-62
2024/04/15 02:27:57;;;;;;;3.08;2.63;;;15.10;71.60;;;;;;5395593;26;20003;-61
2024/04/15 02:30:23;;;;;;;2.88;2.55;;;15.20;71.80;;;;;;5394657;26;20015;-59
2024/04/15 02:32:48;;;;;;;2.60;2.40;;;15.20;72.10;;;;;;5405454;26;20104;-62
2024/04/15 02:35:14;;;;;;;2.88;2.67;;;15.30;72.00;;;;;;5405101;26;19995;-63
2024/04/15 02:37:39;;;;;;;3.92;2.50;;;15.30;72.00;;;;;;5406380;26;20039;-61
2024/04/15 02:40:06;;;;;;;2.60;2.40;;;15.40;72.10;;;;;;5397219;26;19996;-62
2024/04/15 02:42:32;;;;;;;3.42;2.40;;;15.40;72.20;;;;;;5406465;26;19996;-63
2024/04/15 02:44:58;;;;;;;3.17;2.55;;;15.40;72.30;;;;;;5400609;26;20006;-61
2024/04/15 02:47:24;;;;;;;2.60;2.38;;;15.40;72.40;;;;;;5405298;26;20244;-63
2024/04/15 02:49:49;;;;;;;5.10;2.58;;;15.50;73.30;;;;;;5404771;26;19995;-60
2024/04/15 02:52:15;;;;;;;4.38;2.47;;;15.50;72.60;;;;;;5416613;26;20019;-62
2024/04/15 02:54:41;;;;;;;3.60;2.45;;;15.50;72.50;;;;;;5409202;26;20003;-61
2024/04/15 02:57:06;;;;;;;2.67;2.30;;;15.60;72.60;;;;;;5410710;26;19991;-62
2024/04/15 02:59:32;;;;;;;2.85;2.55;;;15.60;72.60;;;;;;5402931;26;20000;-59
2024/04/15 03:01:58;;;;;;;2.65;2.42;;;15.70;72.60;;;;;;5395226;26;20032;-61
2024/04/15 03:04:23;;;;;;;4.00;2.53;;;15.70;72.40;;;;;;5397836;26;19992;-63
2024/04/15 03:06:52;;;;;;;3.83;2.60;;;15.80;73.50;;;;;;5400430;26;20482;-62
2024/04/15 03:09:20;;;;;;;2.50;2.30;;;15.80;72.60;;;;;;5401548;26;20008;-62
2024/04/15 03:11:46;;;;;;;3.97;2.65;;;15.80;72.60;;;;;;5396810;26;20494;-61
2024/04/15 03:14:12;;;;;;;2.80;2.58;;;15.80;72.60;;;;;;5403788;26;20463;-61
2024/04/15 03:16:37;;;;;;;2.55;2.35;;;15.90;72.60;;;;;;5400059;26;20045;-61
2024/04/15 03:19:03;;;;;;;2.55;2.35;;;15.90;72.60;;;;;;5400517;26;19997;-60
2024/04/15 03:21:28;;;;;;;4.57;2.75;;;15.90;72.40;;;;;;5402515;26;20450;-62
2024/04/15 03:23:54;;;;;;;4.18;2.58;;;15.90;72.30;;;;;;5402398;26;19999;-61
2024/04/15 03:26:20;;;;;;;3.97;2.47;;;15.90;72.50;;;;;;5401585;26;20001;-60
2024/04/15 03:28:45;;;;;;;5.07;2.85;;;15.90;72.70;;;;;;5395992;26;20011;-61
2024/04/15 03:31:11;;;;;;;3.90;2.47;;;15.90;74.30;;;;;;5396698;26;20006;-60
2024/04/15 03:33:40;;;;;;;3.83;2.53;;;16.00;74.00;;;;;;5395171;26;20073;-60
2024/04/15 03:36:06;;;;;;;2.90;2.55;;;16.00;74.00;;;;;;5392423;26;20450;-61
2024/04/15 03:38:31;;;;;;;4.03;2.47;;;16.00;74.10;;;;;;5392436;26;20407;-62
2024/04/15 03:40:58;;;;;;;3.13;2.60;;;16.00;74.60;;;;;;5394387;26;20069;-62
2024/04/15 03:43:23;;;;;;;3.50;2.58;;;16.00;75.40;;;;;;5393546;26;20459;-60
2024/04/15 03:45:49;;;;;;;2.92;2.65;;;16.00;74.50;;;;;;5388586;26;20010;-62
2024/04/15 03:48:15;;;;;;;5.13;2.90;;;16.00;74.90;;;;;;5404110;26;20019;-60
2024/04/15 03:50:41;;;;;;;2.67;2.47;;;16.00;75.00;;;;;;5396575;26;19992;-59
2024/04/15 03:53:06;;;;;;;3.17;2.70;;;16.00;75.20;;;;;;5403741;26;20004;-61
2024/04/15 03:55:32;;;;;;;4.35;3.00;;;16.00;75.70;;;;;;5405876;26;20496;-62
2024/04/15 03:57:58;;;;;;;2.80;2.50;;;16.00;75.70;;;;;;5396932;26;20355;-62
2024/04/15 04:00:24;;;;;;;2.80;2.60;;;15.90;75.80;;;;;;5398858;26;20338;-62
2024/04/15 04:02:50;;;;;;;4.25;2.50;;;15.90;76.00;;;;;;5408986;26;20451;-61
2024/04/15 04:05:15;;;;;;;3.03;2.58;;;15.90;76.20;;;;;;5391062;26;19999;-62
2024/04/15 04:07:41;;;;;;;2.80;2.50;;;15.90;77.20;;;;;;5392412;26;19996;-60
2024/04/15 04:10:06;;;;;;;4.20;2.75;;;15.90;76.30;;;;;;5405067;26;20007;-61
2024/04/15 04:12:32;;;;;;;3.80;2.65;;;15.90;76.60;;;;;;5402308;26;20014;-61
2024/04/15 04:14:58;;;;;;;3.30;3.00;;;15.90;76.70;;;;;;5405702;26;20438;-60
2024/04/15 04:17:23;;;;;;;3.20;2.90;;;15.80;76.70;;;;;;5400986;26;19999;-61
2024/04/15 04:19:49;;;;;;;5.90;3.90;;;15.80;77.00;;;;;;5402553;26;20018;-61
2024/04/15 04:22:14;;;;;;;3.58;3.22;;;15.80;77.40;;;;;;5401425;26;20683;-62
2024/04/15 04:24:40;;;;;;;3.60;3.30;;;15.80;77.30;;;;;;5401686;26;20327;-62
2024/04/15 04:27:06;;;;;;;3.25;3.05;;;15.80;78.40;;;;;;5400091;26;20011;-63
2024/04/15 04:29:35;;;;;;;3.45;2.95;;;15.80;77.80;;;;;;5394044;26;20455;-62
2024/04/15 04:32:02;;;;;;;3.78;2.85;;;15.90;78.00;;;;;;5413754;26;20002;-62
2024/04/15 04:34:27;;;;;;;4.40;3.17;;;15.90;77.70;;;;;;5397412;26;20446;-61
2024/04/15 04:36:54;;;;;;;4.50;2.90;;;15.90;77.70;;;;;;5410382;26;20422;-61
2024/04/15 04:39:19;;;;;;;3.25;2.95;;;15.90;77.70;;;;;;5407503;26;20323;-61
2024/04/15 04:41:45;;;;;;;3.08;2.78;;;15.90;77.70;;;;;;5410038;26;20029;-62
2024/04/15 04:44:11;;;;;;;3.17;2.67;;;15.90;77.80;;;;;;5406888;26;20408;-60
2024/04/15 04:46:36;;;;;;;3.95;2.92;;;15.90;77.80;;;;;;5411654;26;20000;-62
2024/04/15 04:49:02;;;;;;;3.65;2.95;;;15.90;78.70;;;;;;5409813;26;20459;-60
2024/04/15 04:51:28;;;;;;;2.60;2.40;;;16.00;77.90;;;;;;5411327;26;20007;-60
2024/04/15 04:53:53;;;;;;;2.60;2.40;;;16.00;78.00;;;;;;5405722;26;20240;-59
2024/04/15 04:56:19;;;;;;;4.05;2.42;;;16.00;78.00;;;;;;5415707;26;20027;-60
2024/04/15 04:58:48;;;;;;;2.85;2.45;;;16.00;78.90;;;;;;5401333;26;20022;-60
2024/04/15 05:01:17;;;;;;;2.47;2.28;;;16.00;78.10;;;;;;5409175;26;20432;-61
2024/04/15 05:03:44;;;;;;;4.57;2.60;;;16.00;78.20;;;;;;5409010;26;20012;-60
2024/04/15 05:06:10;;;;;;;2.60;2.40;;;16.00;78.40;;;;;;5407620;26;20006;-62
2024/04/15 05:08:37;;;;;;;2.92;2.35;;;16.00;78.80;;;;;;5410396;26;20553;-60
2024/04/15 05:11:03;;;;;;;2.80;2.40;;;16.10;79.30;;;;;;5410284;26;20015;-61
2024/04/15 05:13:29;;;;;;;4.05;2.40;;;16.10;79.10;;;;;;5408811;26;20006;-61
2024/04/15 05:16:03;;;;;;;7.40;2.70;;;16.00;78.90;;;;;;5411434;26;20000;-63
2024/04/15 05:18:28;;;;;;;5.57;3.17;;;16.00;79.80;;;;;;5419381;26;20014;-61
2024/04/15 05:20:54;;;;;;;3.88;2.83;;;16.00;79.50;;;;;;5404138;26;19996;-62
2024/04/15 05:23:19;;;;;;;3.78;3.08;;;16.00;79.70;;;;;;5410547;26;19996;-61
2024/04/15 05:25:45;;;;;;;4.25;2.83;;;16.00;80.80;;;;;;5408712;26;20459;-62
2024/04/15 05:28:10;;;;;;;3.97;2.80;;;16.00;80.10;;;;;;5410027;26;20370;-62
2024/04/15 05:30:36;;;;;;;3.92;2.65;;;16.10;80.30;;;;;;5412448;26;20067;-63
2024/04/15 05:33:01;;;;;;;2.80;2.60;;;16.10;80.20;;;;;;5407529;26;19999;-62
2024/04/15 05:35:27;;;;;;;2.72;2.53;;;16.10;80.20;;;;;;5412271;26;20003;-62
2024/04/15 05:37:53;;;;;;;3.13;2.50;;;16.10;80.20;;;;;;5409445;26;20521;-63
2024/04/15 05:40:18;;;;;;;2.75;2.45;;;16.10;80.30;;;;;;5409347;26;19995;-62
2024/04/15 05:42:44;;;;;;;2.83;2.50;;;16.10;80.50;;;;;;5415736;26;20007;-63
2024/04/15 05:45:10;;;;;;;2.97;2.70;;;16.20;80.50;;;;;;5411418;26;20080;-63
2024/04/15 05:47:35;;;;;;;3.88;2.90;;;16.20;80.40;;;;;;5411694;26;20588;-63
2024/04/15 05:50:01;;;;;;;3.60;2.92;;;16.20;80.50;;;;;;5411314;26;19991;-60
2024/04/15 05:52:27;;;;;;;3.50;3.20;;;16.10;80.60;;;;;;5410707;26;20076;-61
2024/04/15 05:54:52;;;;;;;3.28;2.97;;;16.10;80.70;;;;;;5402052;26;20535;-63
2024/04/15 05:57:18;;;;;;;4.35;3.03;;;16.20;80.80;;;;;;5406536;26;20003;-62
2024/04/15 05:59:43;;;;;;;3.65;3.15;;;16.20;80.90;;;;;;5407579;26;20019;-63
2024/04/15 06:02:09;;;;;;;4.70;2.85;;;16.20;81.10;;;;;;5408124;26;19991;-61
2024/04/15 06:04:35;;;;;;;3.00;2.70;;;16.20;81.40;;;;;;5406869;26;20123;-63
2024/04/15 06:07:04;;;;;;;3.25;2.95;;;16.20;81.50;;;;;;5409589;26;20007;-63
2024/04/15 06:09:30;;;;;;;3.70;2.88;;;16.20;81.80;;;;;;5409700;26;20031;-63
2024/04/15 06:11:56;;;;;;;3.65;2.70;;;16.20;81.40;;;;;;5406629;26;20015;-63
2024/04/15 06:14:22;;;;;;;3.35;2.80;;;16.20;81.50;;;;;;5402842;26;19995;-62
2024/04/15 06:16:54;;;;;;;4.63;2.53;;;16.20;81.50;;;;;;5412518;26;20405;-62
2024/04/15 06:19:19;;;;;;;5.78;2.70;;;16.30;81.90;;;;;;5416913;26;20334;-63
2024/04/15 06:21:45;;;;;;;3.55;2.85;;;16.30;81.70;;;;;;5406190;26;19999;-61
2024/04/15 06:24:11;;;;;;;3.78;2.90;;;16.30;82.60;;;;;;5405478;26;20008;-62
2024/04/15 06:26:37;;;;;;;3.85;2.70;;;16.40;81.70;;;;;;5413412;26;20010;-61
2024/04/15 06:29:03;;;;;;;4.90;3.05;;;16.40;82.60;;;;;;5409650;26;20500;-62
2024/04/15 06:31:29;;;;;;;5.75;3.30;;;16.40;81.90;;;;;;5409194;26;20002;-63
2024/04/15 06:33:55;;;;;;;6.05;4.45;;;16.50;81.80;;;;;;5402192;26;19999;-62
2024/04/15 06:36:21;;;;;;;8.60;5.47;;;16.50;81.50;;;;;;5404609;26;20010;-62
2024/04/15 06:38:46;;;;;;;6.07;4.57;;;16.50;81.40;;;;;;5409257;26;20350;-62
2024/04/15 06:41:12;;;;;;;5.78;4.65;;;16.50;81.20;;;;;;5409876;26;20000;-61
2024/04/15 06:43:38;;;;;;;8.13;4.60;;;16.50;81.00;;;;;;5404904;26;20002;-63
2024/04/15 06:46:03;;;;;;;5.03;4.22;;;16.50;81.10;;;;;;5401649;26;20019;-61
2024/04/15 06:48:29;;;;;;;5.45;3.65;;;16.60;81.20;;;;;;5408463;26;20007;-61
2024/04/15 06:50:55;;;;;;;3.97;2.70;;;16.60;81.20;;;;;;5411027;26;20007;-62
2024/04/15 06:53:21;;;;;;;3.50;3.10;;;16.50;81.00;;;;;;5412013;26;19998;-62
2024/04/15 06:55:47;;;;;;;4.65;3.17;;;16.40;80.90;;;;;;5414686;26;20007;-63
2024/04/15 06:58:12;;;;;;;3.90;2.75;;;16.40;81.20;;;;;;5409849;26;20367;-62
2024/04/15 07:00:38;;;;;;;3.17;2.80;;;16.40;81.40;;;;;;5400964;26;20000;-63
2024/04/15 07:03:04;;;;;;;3.72;2.90;;;16.40;81.40;;;;;;5404624;26;19996;-61
2024/04/15 07:05:29;;;;;;;3.05;2.75;;;16.30;81.50;;;;;;5405614;26;20011;-62
2024/04/15 07:07:55;;;;;;;4.13;3.30;;;16.30;81.70;;;;;;5407998;26;20068;-60
2024/04/15 07:10:21;;;;;;;6.15;3.70;;;16.40;82.00;;;;;;5369867;26;19993;-62
2024/04/15 07:12:46;;;;;;;5.88;4.85;;;16.40;82.10;;;;;;5374112;26;20008;-62
2024/04/15 07:15:12;;;;;;;4.60;3.45;;;16.40;82.10;;;;;;5382386;26;19992;-63
2024/04/15 07:17:38;;;;;;;4.05;3.55;;;16.40;82.00;;;;;;5411199;26;20240;-63
2024/04/15 07:20:05;;;;;;;4.43;3.00;;;16.40;82.20;;;;;;5409535;26;20040;-63
2024/04/15 07:22:31;;;;;;;4.93;3.15;;;16.40;82.40;;;;;;5407591;26;20007;-62
2024/04/15 07:25:02;;;;;;;5.18;3.08;;;16.50;82.60;;;;;;5405571;26;20518;-61
2024/04/15 07:27:30;;;;;;;4.07;3.00;;;16.40;82.60;;;;;;5405635;26;20039;-62
2024/04/15 07:29:56;;;;;;;4.32;3.53;;;16.40;82.60;;;;;;5412351;26;19992;-63
2024/04/15 07:32:22;;;;;;;3.90;3.00;;;16.40;82.70;;;;;;5410749;26;19996;-63
2024/04/15 07:34:48;;;;;;;3.88;3.13;;;16.40;82.80;;;;;;5406380;26;19995;-62
2024/04/15 07:37:14;;;;;;;3.83;3.10;;;16.40;82.80;;;;;;5409151;26;20025;-63
2024/04/15 07:39:45;;;;;;;6.03;3.33;;;16.30;82.90;;;;;;5409668;26;20007;-60
2024/04/15 07:42:11;;;;;;;4.28;3.50;;;16.30;82.90;;;;;;5404036;26;20457;-61
2024/04/15 07:44:37;;;;;;;5.20;3.75;;;16.20;83.00;;;;;;5399871;26;20152;-61
2024/04/15 07:47:02;;;;;;;4.22;3.80;;;16.20;83.40;;;;;;5407902;26;20007;-61
2024/04/15 07:49:28;;;;;;;5.82;3.92;;;16.20;83.60;;;;;;5408296;26;20451;-61
2024/04/15 07:51:53;;;;;;;5.47;3.83;;;16.10;83.70;;;;;;5411392;26;20006;-62
2024/04/15 07:54:19;;;;;;;6.28;3.65;;;16.10;84.10;;;;;;5407961;26;20006;-61
2024/04/15 07:56:44;;;;;;;3.40;3.10;;;16.00;84.30;;;;;;5407733;26;20333;-62
2024/04/15 07:59:10;;;;;;;4.07;3.33;;;16.00;84.50;;;;;;5408670;26;20000;-61
2024/04/15 08:01:36;;;;;;;5.68;3.63;;;16.00;84.50;;;;;;5400117;26;20004;-61
2024/04/15 08:04:01;;;;;;;4.85;3.65;;;16.00;84.80;;;;;;5413330;26;20418;-61
2024/04/15 08:06:27;;;;;;;4.68;3.50;;;16.00;84.90;;;;;;5406524;26;19996;-61
2024/04/15 08:08:52;;;;;;;4.82;3.70;;;16.10;84.80;;;;;;5406587;26;20007;-62
2024/04/15 08:11:18;;;;;;;8.48;3.90;;;16.10;85.20;;;;;;5409877;26;20008;-62
2024/04/15 08:13:44;;;;;;;4.93;4.07;;;16.00;85.00;;;;;;5409418;26;20482;-62
2024/04/15 08:16:10;;;;;;;4.63;3.50;;;16.00;85.20;;;;;;5403342;26;20008;-60
2024/04/15 08:18:36;;;;;;;4.03;3.63;;;15.90;85.10;;;;;;5403036;26;20014;-61
2024/04/15 08:21:01;;;;;;;4.57;4.18;;;15.80;85.20;;;;;;5406112;26;19996;-61
2024/04/15 08:23:27;;;;;;;5.57;4.07;;;15.80;85.70;;;;;;5408666;26;20050;-60
2024/04/15 08:25:56;;;;;;;5.15;4.18;;;15.80;85.90;;;;;;5412522;26;19992;-62
2024/04/15 08:28:23;;;;;;;5.68;3.88;;;15.80;87.30;;;;;;5360218;26;20399;-60
2024/04/15 08:30:49;;;;;;;5.03;3.90;;;15.80;86.00;;;;;;5362360;26;20000;-61
2024/04/15 08:33:14;;;;;;;8.38;4.03;;;15.80;86.00;;;;;;5367330;26;20002;-61
2024/04/15 08:35:40;;;;;;;3.95;3.53;;;15.70;85.90;;;;;;5397417;26;20019;-61
2024/04/15 08:38:06;;;;;;;5.20;3.97;;;15.80;86.00;;;;;;5410343;26;20509;-61
2024/04/15 08:40:32;;;;;;;6.97;3.60;;;15.70;86.20;;;;;;5411136;26;19991;-62
2024/04/15 08:43:02;;;;;;;4.55;3.50;;;15.70;86.10;;;;;;5414820;26;20328;-60
2024/04/15 08:45:29;;;;;;;4.05;3.20;;;15.70;86.20;;;;;;5402700;26;20009;-61
2024/04/15 08:47:56;;;;;;;4.47;3.33;;;15.70;85.90;;;;;;5406391;26;20426;-62
2024/04/15 08:50:23;;;;;;;5.00;3.05;;;15.70;85.50;;;;;;5395627;26;20008;-63
2024/04/15 08:52:53;;;;;;;4.18;2.88;;;15.60;85.20;;;;;;5382403;26;19992;-62
2024/04/15 08:55:20;;;;;;;4.20;2.90;;;15.60;84.90;;;;;;5420449;26;20015;-61
2024/04/15 08:57:47;;;;;;;3.83;2.60;;;15.60;84.60;;;;;;5402644;26;20004;-61
2024/04/15 09:00:17;;;;;;;3.10;2.30;;;15.50;84.40;;;;;;5403007;26;19996;-61
2024/04/15 09:02:44;;;;;;;3.97;2.30;;;15.50;84.40;;;;;;5396865;26;20000;-61
2024/04/15 09:05:10;;;;;;;3.67;2.20;;;15.40;84.30;;;;;;5410556;26;20466;-61
2024/04/15 09:07:36;;;;;;;2.53;2.33;;;15.30;84.50;;;;;;5417505;26;19999;-61
2024/04/15 09:10:01;;;;;;;4.45;2.13;;;15.30;84.60;;;;;;5405638;26;20003;-61
2024/04/15 09:12:43;;;;;;;2.50;2.25;;;15.20;84.70;;;;;;5402389;26;20011;-61
2024/04/15 09:15:10;;;;;;;4.70;2.30;;;15.10;85.80;;;;;;5406525;26;19996;-61
2024/04/15 09:17:37;;;;;;;3.00;2.22;;;15.00;85.30;;;;;;5406785;26;20007;-60
2024/04/15 09:20:03;;;;;;;3.30;2.67;;;15.00;85.80;;;;;;5409488;26;20011;-61
2024/04/15 09:22:30;;;;;;;3.80;2.40;;;14.90;86.10;;;;;;5406151;26;20002;-61
2024/04/15 09:24:55;;;;;;;2.95;2.53;;;14.90;86.40;;;;;;5408001;26;20076;-62
2024/04/15 09:27:24;;;;;;;3.42;2.40;;;14.90;86.40;;;;;;5407810;26;19996;-58
2024/04/15 09:29:50;;;;;;;3.15;2.47;;;14.90;86.80;;;;;;5404875;26;20042;-61
2024/04/15 09:32:16;;;;;;;2.90;2.50;;;15.00;86.90;;;;;;5412034;26;20484;-62
2024/04/15 09:34:41;;;;;;;4.82;2.25;;;15.00;86.80;;;;;;5408575;26;20035;-61
2024/04/15 09:37:08;;;;;;;3.38;2.13;;;15.00;86.60;;;;;;5401354;26;19999;-61
2024/04/15 09:39:36;;;;;;;4.32;2.40;;;15.10;86.30;;;;;;5410045;26;20014;-61
2024/04/15 09:42:02;;;;;;;2.95;2.30;;;15.20;86.00;;;;;;5412737;26;20003;-59
2024/04/15 09:44:29;;;;;;;4.20;2.47;;;15.20;85.70;;;;;;5403079;26;20014;-61
2024/04/15 09:46:55;;;;;;;3.92;2.40;;;15.20;85.70;;;;;;5415756;26;20494;-60
2024/04/15 09:49:21;;;;;;;4.38;2.75;;;15.30;85.70;;;;;;5422811;26;20006;-61
2024/04/15 09:51:51;;;;;;;5.80;2.45;;;15.30;85.60;;;;;;5412184;26;20004;-61
2024/04/15 09:54:22;;;;;;;6.95;2.55;;;15.30;85.90;;;;;;5406213;26;20003;-61
2024/04/15 09:56:49;;;;;;;4.40;2.60;;;15.30;85.60;;;;;;5412814;26;20308;-60
2024/04/15 09:59:15;;;;;;;4.25;2.33;;;15.30;85.60;;;;;;5406233;26;20401;-59
2024/04/15 10:01:47;;;;;;;3.92;2.53;;;15.30;85.60;;;;;;5410344;26;20002;-62
2024/04/15 10:04:23;;;;;;;4.13;2.60;;;15.30;86.20;;;;;;5413425;26;20000;-61
2024/04/15 10:06:53;;;;;;;5.22;2.80;;;15.40;86.90;;;;;;5414286;26;20006;-62
2024/04/15 10:09:19;;;;;;;2.67;2.40;;;15.40;86.80;;;;;;5408908;26;20073;-61
2024/04/15 10:11:49;;;;;;;3.60;2.50;;;15.50;86.90;;;;;;5410184;26;19995;-61
2024/04/15 10:14:15;;;;;;;2.30;2.10;;;15.50;87.50;;;;;;5402295;26;19996;-61
2024/04/15 10:16:46;;;;;;;2.85;2.50;;;15.60;87.30;;;;;;5409623;26;20400;-61
2024/04/15 10:19:12;;;;;;;4.35;2.38;;;15.60;87.70;;;;;;5411900;26;20404;-61
2024/04/15 10:21:37;;;;;;;3.78;2.30;;;15.70;87.30;;;;;;5405734;26;19996;-62
2024/04/15 10:24:03;;;;;;;4.47;2.55;;;15.70;87.10;;;;;;5400234;26;19992;-60
2024/04/15 10:26:29;;;;;;;2.47;2.28;;;15.80;87.10;;;;;;5404983;26;20003;-61
2024/04/15 10:29:11;;;;;;;3.15;2.70;;;15.90;86.80;;;;;;5401035;26;20012;-62
2024/04/15 10:31:41;;;;;;;2.65;2.30;;;16.00;87.40;;;;;;5409678;26;19993;-62
2024/04/15 10:34:06;;;;;;;3.08;2.47;;;16.00;86.60;;;;;;5406298;26;19999;-62
2024/04/15 10:36:35;;;;;;;2.90;1.95;;;16.00;86.20;;;;;;5409395;26;20557;-61
2024/04/15 10:39:04;;;;;;;2.92;2.42;;;16.10;86.60;;;;;;5406979;26;20010;-61
2024/04/15 10:41:30;;;;;;;2.78;2.50;;;16.10;86.60;;;;;;5409955;26;20073;-62
2024/04/15 10:43:55;;;;;;;2.70;2.50;;;16.20;86.40;;;;;;5411802;26;20000;-62
2024/04/15 10:46:23;;;;;;;3.38;2.60;;;16.20;86.40;;;;;;5378224;26;20003;-62
2024/04/15 10:48:48;;;;;;;2.78;2.58;;;16.30;86.70;;;;;;5401897;26;20007;-62
2024/04/15 10:51:14;;;;;;;5.22;2.75;;;16.30;86.70;;;;;;5405043;26;20036;-62
2024/04/15 10:53:41;;;;;;;4.35;3.03;;;16.30;86.60;;;;;;5407846;26;19999;-61
2024/04/15 10:56:09;;;;;;;3.28;2.90;;;16.40;86.40;;;;;;5401913;26;20384;-62
2024/04/15 10:58:36;;;;;;;4.03;3.13;;;16.50;86.20;;;;;;5406788;26;20521;-62
2024/04/15 11:01:02;;;;;;;4.15;2.60;;;16.50;86.00;;;;;;5396447;26;20007;-62
2024/04/15 11:03:28;;;;;;;3.10;2.80;;;16.50;85.70;;;;;;5406545;26;19999;-62
2024/04/15 11:05:55;;;;;;;4.93;2.90;;;16.50;85.50;;;;;;5408232;26;20022;-61
2024/04/15 11:08:21;;;;;;;3.42;2.65;;;16.50;85.20;;;;;;5406822;26;19991;-62
2024/04/15 11:10:47;;;;;;;3.53;2.72;;;16.50;84.80;;;;;;5405321;26;20719;-62
2024/04/15 11:13:13;;;;;;;3.92;2.53;;;16.50;84.90;;;;;;5407277;26;20011;-62
2024/04/15 11:15:39;;;;;;;2.70;2.40;;;16.50;84.80;;;;;;5402147;26;20360;-62
2024/04/15 11:18:12;;;;;;;3.28;2.67;;;16.60;84.80;;;;;;5405683;26;19996;-62
2024/04/15 11:20:38;;;;;;;3.13;2.88;;;16.60;85.10;;;;;;5407696;26;20014;-62
2024/04/15 11:23:05;;;;;;;2.80;2.60;;;16.60;84.60;;;;;;5409304;26;20023;-62
2024/04/15 11:25:31;;;;;;;2.72;2.50;;;16.60;84.50;;;;;;5406409;26;19995;-61
2024/04/15 11:27:58;;;;;;;3.83;2.58;;;16.70;84.50;;;;;;5404348;26;19999;-62
2024/04/15 11:30:25;;;;;;;3.05;2.40;;;16.70;84.60;;;;;;5407973;26;19995;-63
2024/04/15 11:32:51;;;;;;;3.47;2.60;;;16.70;84.60;;;;;;5404726;26;20011;-62
2024/04/15 11:35:20;;;;;;;3.92;2.78;;;16.90;84.60;;;;;;5406712;26;20007;-61
2024/04/15 11:38:02;;;;;;;3.50;3.00;;;16.90;84.60;;;;;;5396385;26;21690;-62
2024/04/15 11:40:27;;;;;;;3.30;3.00;;;16.90;85.00;;;;;;5402330;26;20067;-62
2024/04/15 11:42:54;;;;;;;4.60;3.42;;;17.00;85.30;;;;;;5404957;26;20328;-62
2024/04/15 11:45:19;;;;;;;3.67;2.85;;;17.00;85.70;;;;;;5402928;26;19991;-62
2024/04/15 11:47:51;;;;;;;4.60;2.90;;;17.10;86.00;;;;;;5408171;26;19999;-62
2024/04/15 11:50:17;;;;;;;5.88;3.10;;;17.20;85.70;;;;;;5408249;26;20400;-62
2024/04/15 11:52:43;;;;;;;3.20;2.72;;;17.30;85.20;;;;;;5403891;26;19999;-62
2024/04/15 11:55:16;;;;;;;2.92;2.65;;;17.40;84.60;;;;;;5405007;26;20450;-62
2024/04/15 11:57:42;;;;;;;3.13;2.90;;;17.40;84.10;;;;;;5402860;26;20401;-61
2024/04/15 12:00:09;;;;;;;2.95;2.70;;;17.50;84.00;;;;;;5404126;26;20241;-62
2024/04/15 12:02:41;;;;;;;3.85;2.80;;;17.50;83.80;;;;;;5403194;26;20401;-62
2024/04/15 12:05:07;;;;;;;3.03;2.55;;;17.50;83.60;;;;;;5400079;26;19995;-62
2024/04/15 12:07:33;;;;;;;4.03;2.83;;;17.60;83.60;;;;;;5406535;26;20015;-62
2024/04/15 12:10:00;;;;;;;4.45;3.05;;;17.60;83.20;;;;;;5404441;26;19992;-63
2024/04/15 12:12:25;;;;;;;3.28;2.80;;;17.70;83.00;;;;;;5404482;26;19995;-62
2024/04/15 12:14:51;;;;;;;3.42;3.05;;;17.70;82.80;;;;;;5401581;26;19996;-62
2024/04/15 12:17:17;;;;;;;3.35;3.05;;;17.70;82.70;;;;;;5408337;26;20007;-62
2024/04/15 12:19:42;;;;;;;6.20;3.28;;;17.60;82.40;;;;;;5405042;26;20003;-62
2024/04/15 12:22:08;;;;;;;11.43;4.05;;;17.60;82.70;;;;;;5400474;26;20362;-62
2024/04/15 12:24:34;;;;;;;4.93;3.10;;;17.60;82.70;;;;;;5401557;26;20007;-62
2024/04/15 12:26:59;;;;;;;3.00;1.98;;;17.50;82.80;;;;;;5407644;26;20003;-61
2024/04/15 12:29:25;;;;;;;5.63;2.33;;;17.40;82.10;;;;;;5408068;26;20323;-61
2024/04/15 12:31:50;;;;;;;4.80;2.65;;;17.40;81.70;;;;;;5406689;26;20012;-59
2024/04/15 12:34:16;;;;;;;4.05;2.80;;;17.30;82.20;;;;;;5400942;26;20089;-60
2024/04/15 12:36:43;;;;;;;3.13;2.83;;;17.30;82.60;;;;;;5411471;26;20402;-61
2024/04/15 12:39:09;;;;;;;3.08;2.72;;;17.20;83.30;;;;;;5403576;26;20324;-62
2024/04/15 12:41:35;;;;;;;3.60;2.80;;;17.20;84.30;;;;;;5407691;26;20004;-60
2024/04/15 12:44:01;;;;;;;4.60;2.63;;;17.20;84.70;;;;;;5417717;26;20006;-61